Time;durP1;ratioP1;P1;durP2;ratioP2;P2;SDS_P1;SDS_P2;PMS_P1;PMS_P2;Temp;Humidity;BMP_temperature;BMP_pressure;BME280_temperature;BME280_humidity;BME280_pressure;Samples;Min_cycle;Max_cycle;Signal;HPM_P1;HPM_P2
2023/03/09 00:01:26;;;;;;;27.08;14.48;;;;;;;-0.43;100.00;99000.00;5053307;28;20021;-84
2023/03/09 00:03:52;;;;;;;29.02;15.25;;;;;;;-0.43;100.00;99000.00;5052729;28;20033;-84
2023/03/09 00:06:18;;;;;;;29.40;16.52;;;;;;;-0.48;100.00;98987.28;5052442;28;20028;-84
2023/03/09 00:08:45;;;;;;;30.58;16.95;;;;;;;-0.48;100.00;98979.63;5053328;28;20025;-84
2023/03/09 00:11:19;;;;;;;31.98;18.17;;;;;;;-0.54;100.00;98969.44;5053089;28;20021;-85
2023/03/09 00:13:47;;;;;;;33.40;18.63;;;;;;;-0.55;100.00;98968.59;5052585;28;20037;-84
2023/03/09 00:16:13;;;;;;;32.47;18.17;;;;;;;-0.53;100.00;98994.09;5052833;28;20045;-84
2023/03/09 00:18:40;;;;;;;33.05;18.63;;;;;;;-0.60;100.00;98972.84;5053157;28;20428;-84
2023/03/09 00:21:05;;;;;;;33.10;18.85;;;;;;;-0.60;100.00;98959.25;5051846;28;20048;-85
2023/03/09 00:23:31;;;;;;;34.00;19.02;;;;;;;-0.62;100.00;98983.03;5052889;28;20449;-85
2023/03/09 00:26:04;;;;;;;32.08;16.75;;;;;;;-0.62;100.00;98984.75;5052461;28;20028;-84
2023/03/09 00:28:30;;;;;;;31.65;17.58;;;;;;;-0.56;100.00;99000.00;5053337;28;20028;-85
2023/03/09 00:31:03;;;;;;;32.30;17.45;;;;;;;-0.57;100.00;99007.66;5052538;28;20422;-85
2023/03/09 00:33:28;;;;;;;32.63;17.95;;;;;;;-0.59;100.00;99010.22;5052366;28;20029;-84
2023/03/09 00:36:00;;;;;;;30.30;16.27;;;;;;;-0.54;100.00;99008.50;5052672;28;20013;-84
2023/03/09 00:38:25;;;;;;;30.45;16.35;;;;;;;-0.51;100.00;99020.44;5052752;28;20100;-84
2023/03/09 00:40:51;;;;;;;34.53;17.90;;;;;;;-0.57;100.00;99011.09;5051823;28;20144;-84
2023/03/09 00:43:17;;;;;;;32.45;17.48;;;;;;;-0.55;100.00;99019.56;5052909;28;20492;-84
2023/03/09 00:45:43;;;;;;;31.20;17.00;;;;;;;-0.55;100.00;99031.47;5052630;28;20032;-84
2023/03/09 00:48:08;;;;;;;31.55;16.83;;;;;;;-0.50;100.00;99042.47;5051622;28;20024;-84
2023/03/09 00:50:33;;;;;;;32.03;17.73;;;;;;;-0.54;100.00;99035.72;5052656;28;20029;-84
2023/03/09 00:52:58;;;;;;;31.48;16.75;;;;;;;-0.54;100.00;99045.91;5052223;28;20115;-84
2023/03/09 00:55:24;;;;;;;32.17;17.48;;;;;;;-0.60;100.00;99039.09;5052184;28;20021;-84
2023/03/09 00:57:49;;;;;;;29.40;15.98;;;;;;;-0.56;100.00;99038.25;5052497;28;20533;-84
2023/03/09 01:00:15;;;;;;;30.92;16.83;;;;;;;-0.51;100.00;99046.75;5052027;28;20025;-84
2023/03/09 01:02:40;;;;;;;28.80;14.88;;;;;;;-0.47;100.00;99056.09;5051843;28;20021;-84
2023/03/09 01:05:05;;;;;;;28.42;14.50;;;;;;;-0.43;100.00;99066.28;5052107;28;20021;-84
2023/03/09 01:07:34;;;;;;;29.40;15.85;;;;;;;-0.47;100.00;99053.56;5052285;28;20044;-84
2023/03/09 01:09:59;;;;;;;26.40;13.32;;;;;;;-0.44;100.00;99059.47;5051327;28;20381;-84
2023/03/09 01:12:25;;;;;;;26.23;14.07;;;;;;;-0.37;100.00;99071.41;5052358;28;20028;-84
2023/03/09 01:14:54;;;;;;;28.33;14.68;;;;;;;-0.40;100.00;99102.84;5052045;28;20461;-84
2023/03/09 01:17:19;;;;;;;25.95;13.13;;;;;;;-0.35;100.00;99107.94;5051985;28;20377;-85
2023/03/09 01:19:44;;;;;;;26.08;13.82;;;;;;;-0.33;100.00;99104.53;5052297;28;20115;-84
2023/03/09 01:22:10;;;;;;;28.42;14.90;;;;;;;-0.34;100.00;99094.34;5051907;28;20037;-84
2023/03/09 01:24:35;;;;;;;27.95;15.18;;;;;;;-0.35;100.00;99097.75;5051669;28;20021;-84
2023/03/09 01:27:00;;;;;;;27.10;13.85;;;;;;;-0.29;100.00;99100.28;5052048;28;20040;-84
2023/03/09 01:29:25;;;;;;;28.95;14.95;;;;;;;-0.29;100.00;99095.19;5051389;28;20033;-84
2023/03/09 01:31:51;;;;;;;28.45;14.95;;;;;;;-0.33;100.00;99103.66;5052165;28;20025;-84
2023/03/09 01:34:16;;;;;;;31.60;16.98;;;;;;;-0.34;100.00;99115.59;5052298;28;20059;-84
2023/03/09 01:36:41;;;;;;;28.58;14.55;;;;;;;-0.30;100.00;99136.00;5051203;28;20225;-84
2023/03/09 01:39:09;;;;;;;26.50;13.30;;;;;;;-0.25;100.00;99124.09;5051750;28;20025;-84
2023/03/09 01:41:34;;;;;;;25.88;13.30;;;;;;;-0.24;100.00;99131.75;5052324;28;20032;-84
2023/03/09 01:43:59;;;;;;;24.50;12.38;;;;;;;-0.22;100.00;99131.75;5051012;28;20025;-84
2023/03/09 01:46:24;;;;;;;24.02;12.00;;;;;;;-0.21;100.00;99129.19;5052128;28;20481;-84
2023/03/09 01:49:13;;;;;;;22.83;11.25;;;;;;;-0.20;100.00;99130.88;5051965;28;20500;-84
2023/03/09 01:51:52;;;;;;;21.17;9.55;;;;;;;-0.16;100.00;99130.06;5051309;28;20021;-85
2023/03/09 01:54:24;;;;;;;20.80;9.32;;;;;;;-0.11;100.00;99139.41;5055501;28;20029;-84
2023/03/09 01:56:54;;;;;;;20.75;9.07;;;;;;;-0.14;100.00;99139.41;5055496;28;20021;-84
2023/03/09 01:59:24;;;;;;;22.92;10.68;;;;;;;-0.11;100.00;99144.53;5054782;28;20029;-84
2023/03/09 02:01:50;;;;;;;27.77;13.85;;;;;;;-0.17;100.00;99148.75;5054883;28;20021;-84
2023/03/09 02:04:21;;;;;;;24.13;11.68;;;;;;;-0.14;100.00;99150.44;5055480;28;20082;-84
2023/03/09 02:06:47;;;;;;;24.77;12.25;;;;;;;-0.11;100.00;99159.81;5055027;28;20058;-84
2023/03/09 02:09:31;;;;;;;23.25;10.73;;;;;;;-0.11;100.00;99175.97;5055684;28;20029;-83
2023/03/09 02:11:58;;;;;;;22.15;10.18;;;;;;;-0.07;100.00;99184.47;5054696;28;20013;-84
2023/03/09 02:14:25;;;;;;;20.58;8.98;;;;;;;-0.05;100.00;99178.50;5055363;28;20017;-84
2023/03/09 02:16:50;;;;;;;18.33;7.85;;;;;;;-0.02;100.00;99177.69;5055322;28;20032;-83
2023/03/09 02:19:36;;;;;;;21.98;9.73;;;;;;;-0.02;100.00;99172.56;5054329;28;20081;-83
2023/03/09 02:22:02;;;;;;;24.35;12.23;;;;;;;-0.11;100.00;99147.91;5054796;28;20049;-85
2023/03/09 02:24:53;;;;;;;26.73;13.25;;;;;;;-0.16;100.00;99140.25;5055223;28;20402;-84
2023/03/09 02:27:27;;;;;;;28.88;15.43;;;;;;;-0.16;100.00;99155.56;5054458;28;20025;-84
2023/03/09 02:29:53;;;;;;;28.15;14.35;;;;;;;-0.15;100.00;99176.78;5054837;28;20037;-84
2023/03/09 02:32:19;;;;;;;28.50;14.15;;;;;;;-0.14;100.00;99182.75;5055260;28;20102;-84
2023/03/09 02:34:44;;;;;;;24.50;11.88;;;;;;;-0.14;100.00;99177.66;5054076;28;20053;-84
2023/03/09 02:37:25;;;;;;;24.50;11.98;;;;;;;-0.10;100.00;99185.31;5054868;28;20082;-84
2023/03/09 02:42:18;;;;;;;22.85;10.90;;;;;;;-0.13;100.00;99194.66;5072981;28;20044;-82
2023/03/09 02:44:58;;;;;;;22.45;10.02;;;;;;;-0.13;100.00;99187.84;5074786;28;20032;-83
2023/03/09 02:47:24;;;;;;;22.05;9.88;;;;;;;-0.12;100.00;99186.16;5074230;28;20051;-82
2023/03/09 02:49:50;;;;;;;20.40;9.10;;;;;;;-0.03;100.00;99192.09;5074226;28;20107;-83
2023/03/09 02:52:24;;;;;;;19.90;9.02;;;;;;;-0.01;100.00;99197.22;5074932;28;20028;-82
2023/03/09 02:54:50;;;;;;;19.85;8.40;;;;;;;0.01;100.00;99192.97;5073679;28;20035;-82
2023/03/09 02:57:15;;;;;;;23.70;10.75;;;;;;;-0.02;100.00;99191.25;5074239;28;20024;-83
2023/03/09 02:59:41;;;;;;;24.30;11.50;;;;;;;-0.01;100.00;99202.34;5074657;28;20024;-82
2023/03/09 03:02:06;;;;;;;22.58;10.27;;;;;;;0.01;100.00;99212.53;5073405;28;20032;-83
2023/03/09 03:04:31;;;;;;;23.52;11.43;;;;;;;-0.04;100.00;99197.22;5074588;28;20434;-83
2023/03/09 03:06:57;;;;;;;23.27;10.95;;;;;;;-0.03;100.00;99206.56;5074316;28;20024;-83
2023/03/09 03:09:22;;;;;;;26.67;13.57;;;;;;;-0.05;100.00;99201.47;5073691;28;20020;-82
2023/03/09 03:11:54;;;;;;;24.60;11.73;;;;;;;-0.04;100.00;99199.78;5074000;28;20027;-82
2023/03/09 03:14:19;;;;;;;23.40;10.85;;;;;;;-0.06;100.00;99196.38;5073521;28;20503;-82
2023/03/09 03:16:45;;;;;;;22.10;10.05;;;;;;;-0.08;100.00;99188.72;5073229;28;20032;-82
2023/03/09 03:19:16;;;;;;;24.33;11.70;;;;;;;-0.11;100.00;99186.16;5074165;28;20151;-83
2023/03/09 03:21:48;;;;;;;25.90;13.15;;;;;;;-0.08;100.00;99190.41;5074103;28;20471;-83
2023/03/09 03:24:47;;;;;;;30.60;15.68;;;;;;;-0.08;100.00;99209.13;5073358;28;20025;-83
2023/03/09 03:27:18;;;;;;;32.40;16.88;;;;;;;-0.14;100.00;99214.19;5073946;28;20424;-82
2023/03/09 03:29:45;;;;;;;29.38;14.40;;;;;;;-0.09;100.00;99226.94;5073004;28;20082;-83
2023/03/09 03:32:11;;;;;;;26.83;13.05;;;;;;;-0.17;100.00;99220.16;5074070;28;20029;-82
2023/03/09 03:34:36;;;;;;;25.50;12.23;;;;;;;-0.14;100.00;99226.94;5073987;28;20400;-82
2023/03/09 03:37:02;;;;;;;27.95;14.18;;;;;;;-0.18;100.00;99225.25;5072779;28;20472;-82
2023/03/09 03:39:27;;;;;;;28.35;14.63;;;;;;;-0.12;100.00;99250.75;5073707;28;20028;-82
2023/03/09 03:41:52;;;;;;;27.77;13.88;;;;;;;-0.11;100.00;99251.63;5073136;28;20040;-82
2023/03/09 03:44:18;;;;;;;27.80;13.77;;;;;;;-0.08;100.00;99261.81;5073049;28;20028;-83
2023/03/09 03:46:43;;;;;;;26.52;13.10;;;;;;;-0.06;100.00;99262.69;5073369;28;20530;-82
2023/03/09 03:49:09;;;;;;;25.17;11.82;;;;;;;-0.02;100.00;99272.03;5073566;28;20021;-83
2023/03/09 03:51:34;;;;;;;24.70;11.60;;;;;;;-0.02;100.00;99274.59;5072711;28;20379;-83
2023/03/09 03:53:59;;;;;;;29.35;14.57;;;;;;;-0.02;100.00;99285.63;5073154;28;20027;-82
2023/03/09 03:56:25;;;;;;;34.53;18.00;;;;;;;-0.07;100.00;99272.03;5073368;28;20041;-83
2023/03/09 03:58:53;;;;;;;34.88;17.75;;;;;;;-0.09;100.00;99281.38;5072645;28;20028;-82
2023/03/09 04:01:19;;;;;;;41.33;21.88;;;;;;;-0.23;100.00;99283.91;5073134;28;20075;-82
2023/03/09 04:03:44;;;;;;;41.45;22.65;;;;;;;-0.27;100.00;99288.94;5072834;28;20029;-83
2023/03/09 04:06:09;;;;;;;42.22;22.92;;;;;;;-0.30;100.00;99286.41;5072079;28;20028;-82
2023/03/09 04:08:37;;;;;;;41.97;22.70;;;;;;;-0.32;100.00;99282.16;5073069;28;20016;-83
2023/03/09 04:11:06;;;;;;;43.88;23.70;;;;;;;-0.39;100.00;99284.66;5073005;28;20029;-82
2023/03/09 04:13:32;;;;;;;43.65;22.63;;;;;;;-0.42;100.00;99279.53;5072748;28;20372;-83
2023/03/09 04:16:00;;;;;;;40.92;21.98;;;;;;;-0.38;100.00;99296.56;5072510;28;20020;-82
2023/03/09 04:18:25;;;;;;;40.67;21.45;;;;;;;-0.43;100.00;99293.13;5072448;28;20028;-82
2023/03/09 04:20:51;;;;;;;40.78;22.17;;;;;;;-0.34;100.00;99300.84;5072872;28;20472;-82
2023/03/09 04:23:16;;;;;;;37.85;19.70;;;;;;;-0.40;100.00;99288.06;5073150;28;20027;-83
2023/03/09 04:25:42;;;;;;;43.17;21.67;;;;;;;-0.34;100.00;99303.41;5072075;28;20064;-83
2023/03/09 04:28:07;;;;;;;41.65;22.00;;;;;;;-0.36;100.00;99307.63;5072696;28;20036;-82
2023/03/09 04:30:32;;;;;;;39.50;21.08;;;;;;;-0.33;100.00;99310.16;5073215;28;20025;-83
2023/03/09 04:32:57;;;;;;;38.20;19.83;;;;;;;-0.30;100.00;99307.63;5072076;28;20036;-83
2023/03/09 04:35:26;;;;;;;39.25;20.13;;;;;;;-0.28;100.00;99312.75;5072765;28;20038;-83
2023/03/09 04:37:51;;;;;;;39.60;20.98;;;;;;;-0.27;100.00;99314.44;5072783;28;20440;-82
2023/03/09 04:40:17;;;;;;;36.95;19.52;;;;;;;-0.24;100.00;99319.56;5071592;28;20071;-82
2023/03/09 04:42:42;;;;;;;43.53;23.15;;;;;;;-0.29;100.00;99311.91;5071986;28;20063;-83
2023/03/09 04:45:09;;;;;;;44.97;23.50;;;;;;;-0.26;100.00;99319.56;5072424;28;20020;-83
2023/03/09 04:47:36;;;;;;;44.37;23.87;;;;;;;-0.27;100.00;99329.75;5072094;28;20024;-82
2023/03/09 04:50:02;;;;;;;42.78;22.27;;;;;;;-0.27;100.00;99345.91;5072588;28;20116;-82
2023/03/09 04:52:27;;;;;;;40.78;22.08;;;;;;;-0.29;100.00;99332.28;5072875;28;20107;-82
2023/03/09 04:54:54;;;;;;;44.90;23.65;;;;;;;-0.26;100.00;99341.66;5071582;28;20494;-82
2023/03/09 04:57:19;;;;;;;45.20;23.95;;;;;;;-0.24;100.00;99347.59;5072795;28;20028;-82
2023/03/09 04:59:45;;;;;;;38.70;20.65;;;;;;;-0.23;100.00;99347.63;5072498;28;20419;-83
2023/03/09 05:02:10;;;;;;;40.22;21.05;;;;;;;-0.21;100.00;99348.47;5072098;28;20028;-83
2023/03/09 05:04:36;;;;;;;39.05;21.63;;;;;;;-0.20;100.00;99352.72;5072529;28;20028;-83
2023/03/09 05:07:02;;;;;;;38.38;19.88;;;;;;;-0.18;100.00;99361.25;5072242;28;20028;-82
2023/03/09 05:09:27;;;;;;;39.55;21.02;;;;;;;-0.18;100.00;99352.75;5071856;28;20365;-84
2023/03/09 05:11:53;;;;;;;44.38;23.35;;;;;;;-0.10;100.00;99362.97;5072419;28;20099;-82
2023/03/09 05:14:19;;;;;;;46.95;25.30;;;;;;;-0.15;100.00;99370.59;5072630;28;20036;-82
2023/03/09 05:16:53;;;;;;;43.05;22.88;;;;;;;-0.16;100.00;99368.88;5071590;28;20025;-82
2023/03/09 05:19:22;;;;;;;40.08;21.67;;;;;;;-0.12;100.00;99385.91;5072238;28;20081;-82
2023/03/09 05:21:47;;;;;;;43.40;23.13;;;;;;;-0.13;100.00;99391.03;5071313;28;20918;-82
2023/03/09 05:24:13;;;;;;;41.47;22.20;;;;;;;-0.11;100.00;99384.25;5072169;28;20056;-83
2023/03/09 05:26:38;;;;;;;38.05;20.80;;;;;;;-0.10;100.00;99388.47;5072118;28;20029;-82
2023/03/09 05:29:03;;;;;;;47.45;25.75;;;;;;;-0.16;100.00;99397.81;5074337;28;20082;-83
2023/03/09 05:31:29;;;;;;;50.63;27.75;;;;;;;-0.22;100.00;99391.81;5076144;28;20039;-82
2023/03/09 05:33:57;;;;;;;48.35;26.73;;;;;;;-0.23;100.00;99390.97;5075987;28;20021;-82
2023/03/09 05:36:24;;;;;;;44.45;24.13;;;;;;;-0.19;100.00;99394.41;5074968;28;20036;-83
2023/03/09 05:38:50;;;;;;;;;;;;;;;-0.18;100.00;99401.19;5076392;28;20029;-82
2023/03/09 05:41:17;;;;;;;47.97;25.88;;;;;;;-0.27;100.00;99386.69;5075889;28;19916;-82
2023/03/09 05:43:43;;;;;;;51.70;28.48;;;;;;;-0.26;100.00;99383.31;5075261;28;20388;-82
2023/03/09 05:46:13;;;;;;;46.70;25.67;;;;;;;-0.29;100.00;99388.38;5075619;28;20074;-82
2023/03/09 05:48:39;;;;;;;48.00;25.40;;;;;;;-0.38;100.00;99378.13;5073884;28;20032;-82
2023/03/09 05:51:17;;;;;;;48.50;24.85;;;;;;;-0.33;100.00;99384.97;5074735;28;20354;-83
2023/03/09 05:53:42;;;;;;;44.25;23.85;;;;;;;-0.40;100.00;99372.19;5075994;28;20034;-82
2023/03/09 05:56:08;;;;;;;47.17;25.67;;;;;;;-0.42;100.00;99384.06;5075385;28;20095;-83
2023/03/09 05:58:51;;;;;;;49.35;26.50;;;;;;;-0.38;100.00;99390.88;5074892;28;20024;-82
2023/03/09 06:01:28;;;;;;;43.38;23.95;;;;;;;-0.35;100.00;99398.56;5075517;28;20031;-82
2023/03/09 06:03:54;;;;;;;39.97;21.52;;;;;;;-0.32;100.00;99413.84;5074517;28;20025;-82
2023/03/09 06:06:22;;;;;;;35.60;18.45;;;;;;;-0.26;100.00;99420.69;5075403;28;20032;-82
2023/03/09 06:08:47;;;;;;;32.38;16.58;;;;;;;-0.19;100.00;99423.28;5075142;28;20043;-83
2023/03/09 06:11:13;;;;;;;38.67;19.75;;;;;;;-0.20;100.00;99420.75;5074687;28;20016;-82
2023/03/09 06:13:39;;;;;;;48.20;26.08;;;;;;;-0.29;100.00;99402.84;5075402;28;20059;-82
2023/03/09 06:16:05;;;;;;;43.63;23.60;;;;;;;-0.28;100.00;99407.09;5074549;28;20131;-82
2023/03/09 06:18:31;;;;;;;40.28;22.15;;;;;;;-0.23;100.00;99419.03;5074130;28;20127;-82
2023/03/09 06:21:05;;;;;;;41.08;21.00;;;;;;;-0.19;100.00;99438.59;5075018;28;20138;-82
2023/03/09 06:23:32;;;;;;;33.97;17.80;;;;;;;-0.13;100.00;99439.47;5075332;28;20033;-82
2023/03/09 06:26:02;;;;;;;35.92;18.30;;;;;;;-0.15;100.00;99429.25;5073944;28;20017;-82
2023/03/09 06:28:27;;;;;;;35.33;18.05;;;;;;;-0.09;100.00;99436.09;5075057;28;20050;-82
2023/03/09 06:30:52;;;;;;;40.30;21.02;;;;;;;-0.11;100.00;99448.00;5075135;28;20020;-83
2023/03/09 06:33:20;;;;;;;35.22;18.40;;;;;;;-0.09;100.00;99467.56;5074152;28;20414;-82
2023/03/09 06:35:46;;;;;;;41.67;21.40;;;;;;;-0.09;100.00;99471.78;5074402;28;20109;-82
2023/03/09 06:38:11;;;;;;;45.28;23.95;;;;;;;-0.12;100.00;99472.63;5074669;28;20040;-82
2023/03/09 06:40:45;;;;;;;50.15;26.08;;;;;;;-0.19;100.00;99464.09;5074099;28;20488;-82
2023/03/09 06:43:11;;;;;;;47.25;24.80;;;;;;;-0.17;100.00;99466.66;5074688;28;20457;-82
2023/03/09 06:45:36;;;;;;;44.72;23.27;;;;;;;-0.16;100.00;99460.69;5074745;28;20052;-82
2023/03/09 06:48:02;;;;;;;46.50;24.67;;;;;;;-0.18;100.00;99477.72;5073937;28;20048;-82
2023/03/09 06:50:27;;;;;;;48.53;25.77;;;;;;;-0.17;100.00;99476.88;5074544;28;20028;-82
2023/03/09 06:52:53;;;;;;;46.38;24.85;;;;;;;-0.18;100.00;99473.44;5073652;28;20074;-82
2023/03/09 06:55:18;;;;;;;42.35;22.65;;;;;;;-0.13;100.00;99480.28;5074112;28;20052;-83
2023/03/09 06:57:44;;;;;;;37.25;18.48;;;;;;;-0.08;100.00;99493.91;5074518;28;20066;-80
2023/03/09 07:02:55;;;;;;;40.28;20.95;;;;;;;-0.14;100.00;99487.06;5071884;28;20046;-82
2023/03/09 07:05:21;;;;;;;39.08;19.80;;;;;;;-0.01;100.00;99518.63;5074634;28;20021;-82
2023/03/09 07:07:53;;;;;;;35.05;17.38;;;;;;;-0.06;100.00;99515.19;5073323;28;20032;-82
2023/03/09 07:10:49;;;;;;;33.55;16.02;;;;;;;0.06;100.00;99533.13;5074817;28;20016;-83
2023/03/09 07:13:24;;;;;;;;;;;;;;;0.06;100.00;99543.31;5075047;28;20028;-83
2023/03/09 07:19:48;;;;;;;38.45;19.65;;;;;;;0.06;100.00;99570.50;5075009;28;20071;-83
2023/03/09 07:22:16;;;;;;;43.63;21.98;;;;;;;0.03;100.00;99566.25;5072458;28;20062;-83
2023/03/09 07:24:41;;;;;;;40.28;20.35;;;;;;;0.07;100.00;99562.88;5074052;28;20016;-83
2023/03/09 07:27:07;;;;;;;36.80;18.33;;;;;;;0.11;100.00;99576.50;5073804;28;20041;-83
2023/03/09 07:29:33;;;;;;;35.08;17.95;;;;;;;0.12;100.00;99571.41;5073337;28;20082;-83
2023/03/09 07:32:01;;;;;;;38.72;20.23;;;;;;;0.16;100.00;99567.22;5072959;28;20040;-83
2023/03/09 07:34:27;;;;;;;41.05;20.27;;;;;;;0.14;100.00;99569.72;5094039;28;20028;-81
2023/03/09 07:36:52;;;;;;;41.25;20.35;;;;;;;0.18;100.00;99573.16;5093204;28;20032;-84
2023/03/09 07:39:17;;;;;;;46.80;24.05;;;;;;;0.17;100.00;99589.28;5094091;28;20035;-84
2023/03/09 07:41:43;;;;;;;41.28;21.10;;;;;;;0.22;100.00;99597.84;5093828;28;20476;-84
2023/03/09 07:44:08;;;;;;;39.35;19.90;;;;;;;0.24;100.00;99602.97;5092492;28;20020;-84
2023/03/09 07:46:34;;;;;;;35.47;17.63;;;;;;;0.25;100.00;99599.56;5093898;28;20031;-85
2023/03/09 07:48:59;;;;;;;33.17;16.65;;;;;;;0.30;100.00;99597.91;5093540;28;20027;-84
2023/03/09 07:51:31;;;;;;;34.47;16.52;;;;;;;0.33;100.00;99604.72;5092265;28;20065;-84
2023/03/09 07:53:57;;;;;;;35.25;16.92;;;;;;;0.33;100.00;99605.59;5093238;28;20024;-84
2023/03/09 07:56:23;;;;;;;34.58;16.77;;;;;;;0.34;100.00;99606.44;5092634;28;20051;-83
2023/03/09 07:58:52;;;;;;;43.60;21.90;;;;;;;0.27;100.00;99596.19;5093697;28;20043;-84
2023/03/09 08:01:18;;;;;;;42.92;21.45;;;;;;;0.27;100.00;99606.41;5087409;28;20500;-85
2023/03/09 08:03:44;;;;;;;46.50;23.98;;;;;;;0.22;100.00;99618.25;5093234;28;20023;-84
2023/03/09 08:06:10;;;;;;;48.53;24.23;;;;;;;0.17;100.00;99622.47;5093521;28;20028;-84
2023/03/09 08:08:36;;;;;;;46.70;23.80;;;;;;;0.20;100.00;99622.50;5093366;28;20502;-84
2023/03/09 08:11:08;;;;;;;46.83;23.63;;;;;;;0.21;100.00;99629.31;5076519;28;20054;-83
2023/03/09 08:13:34;;;;;;;42.08;21.25;;;;;;;0.26;100.00;99625.13;5081933;28;20028;-83
2023/03/09 08:16:02;;;;;;;38.03;18.30;;;;;;;0.35;100.00;99631.97;5092569;28;20040;-84
2023/03/09 08:18:29;;;;;;;38.60;18.27;;;;;;;0.34;100.00;99640.44;5090910;28;20052;-83
2023/03/09 08:20:55;;;;;;;42.30;20.35;;;;;;;0.40;100.00;99652.41;5091889;28;20020;-84
2023/03/09 08:23:20;;;;;;;39.05;19.70;;;;;;;0.32;100.00;99633.63;5091225;28;20039;-85
2023/03/09 08:25:52;;;;;;;34.92;17.25;;;;;;;0.45;100.00;99651.59;5090529;28;20515;-84
2023/03/09 08:28:17;;;;;;;37.28;18.52;;;;;;;0.48;100.00;99652.47;5091930;28;20059;-84
2023/03/09 08:30:43;;;;;;;35.25;17.02;;;;;;;0.53;100.00;99643.16;5092603;28;20056;-84
2023/03/09 08:33:08;;;;;;;33.65;16.02;;;;;;;0.56;100.00;99653.41;5092105;28;20020;-84
2023/03/09 08:35:34;;;;;;;31.83;15.10;;;;;;;0.57;100.00;99644.84;5093138;28;20077;-84
2023/03/09 08:38:00;;;;;;;36.30;17.25;;;;;;;0.63;100.00;99660.22;5092900;28;20020;-84
2023/03/09 08:40:25;;;;;;;32.47;15.50;;;;;;;0.67;100.00;99668.75;5092324;28;20070;-84
2023/03/09 08:42:51;;;;;;;31.30;14.70;;;;;;;0.71;100.00;99671.34;5092321;28;20040;-84
2023/03/09 08:45:19;;;;;;;34.15;16.27;;;;;;;0.74;100.00;99676.47;5092853;28;20074;-84
2023/03/09 08:47:44;;;;;;;36.40;17.60;;;;;;;0.71;100.00;99675.63;5092009;28;20035;-84
2023/03/09 08:50:10;;;;;;;34.55;15.77;;;;;;;0.74;100.00;99668.81;5092724;28;20460;-84
2023/03/09 08:52:39;;;;;;;47.27;23.43;;;;;;;0.64;100.00;99669.59;5092369;28;20073;-84
2023/03/09 08:55:06;;;;;;;45.42;22.63;;;;;;;0.68;100.00;99685.78;5092604;28;20024;-84
2023/03/09 08:57:31;;;;;;;45.28;22.77;;;;;;;0.68;100.00;99676.41;5093038;28;20103;-84
2023/03/09 08:59:57;;;;;;;45.85;23.50;;;;;;;0.71;100.00;99681.56;5091346;28;20143;-84
2023/03/09 09:02:23;;;;;;;42.08;21.17;;;;;;;0.73;100.00;99697.75;5094978;28;20089;-84
2023/03/09 09:04:49;;;;;;;36.95;17.85;;;;;;;0.80;100.00;99690.13;5096669;28;20020;-84
2023/03/09 09:07:15;;;;;;;34.65;16.88;;;;;;;0.90;100.00;99717.44;5096163;28;20156;-85
2023/03/09 09:09:43;;;;;;;44.37;21.70;;;;;;;0.81;100.00;99710.56;5096903;28;20016;-84
2023/03/09 09:12:10;;;;;;;44.58;21.38;;;;;;;0.79;100.00;99712.25;5096012;28;20335;-84
2023/03/09 09:14:39;;;;;;;40.13;19.75;;;;;;;0.84;100.00;99718.28;5095915;28;20532;-84
2023/03/09 09:17:11;;;;;;;43.15;20.52;;;;;;;0.82;100.00;99713.97;5096410;28;20039;-84
2023/03/09 09:19:36;;;;;;;38.67;18.75;;;;;;;0.89;100.00;99731.91;5096878;28;20032;-84
2023/03/09 09:22:03;;;;;;;36.40;17.35;;;;;;;0.95;100.00;99730.25;5095757;28;20474;-84
2023/03/09 09:24:35;;;;;;;37.85;18.35;;;;;;;1.04;100.00;99723.47;5096762;28;20024;-84
2023/03/09 09:27:00;;;;;;;37.47;17.92;;;;;;;1.08;100.00;99714.13;5095746;28;20020;-84
2023/03/09 09:29:26;;;;;;;39.13;18.17;;;;;;;1.08;100.00;99717.53;5095671;28;20057;-84
2023/03/09 09:31:52;;;;;;;43.30;22.20;;;;;;;1.05;100.00;99709.84;5095895;28;20093;-84
2023/03/09 09:34:21;;;;;;;42.10;21.10;;;;;;;1.11;100.00;99718.41;5096247;28;20048;-84
2023/03/09 09:36:46;;;;;;;45.35;22.38;;;;;;;1.11;100.00;99706.47;5095409;28;20027;-84
2023/03/09 09:39:14;;;;;;;45.67;22.63;;;;;;;1.14;100.00;99714.16;5096477;28;20107;-84
2023/03/09 09:41:39;;;;;;;47.70;23.73;;;;;;;1.17;100.00;99719.31;5096117;28;20040;-84
2023/03/09 09:44:09;;;;;;;43.05;21.17;;;;;;;1.30;100.00;99727.88;5095349;28;20476;-84
2023/03/09 09:46:36;;;;;;;37.15;18.02;;;;;;;1.41;100.00;99738.13;5096400;28;20388;-84
2023/03/09 09:49:03;;;;;;;34.88;16.85;;;;;;;1.48;100.00;99733.91;5095157;28;20051;-87
2023/03/09 09:51:50;;;;;;;32.75;15.43;;;;;;;1.58;100.00;99737.34;5096356;28;20025;-84
2023/03/09 09:54:21;;;;;;;31.45;14.23;;;;;;;1.67;100.00;99745.94;5095872;28;20032;-84
2023/03/09 09:56:52;;;;;;;34.10;16.05;;;;;;;1.71;100.00;99734.00;5094909;28;20434;-84
2023/03/09 09:59:36;;;;;;;34.05;15.77;;;;;;;1.69;100.00;99741.66;5096279;28;20081;-84
2023/03/09 10:02:08;;;;;;;33.00;14.80;;;;;;;1.72;100.00;99739.94;5083458;28;20043;-84
2023/03/09 10:04:38;;;;;;;34.60;16.73;;;;;;;1.69;100.00;99726.28;5094930;28;20034;-84
2023/03/09 10:07:15;;;;;;;32.42;15.50;;;;;;;1.74;100.00;99745.94;5095432;28;20028;-84
2023/03/09 10:09:44;;;;;;;32.75;15.55;;;;;;;1.80;100.00;99748.53;5096097;28;20027;-84
2023/03/09 10:12:14;;;;;;;29.05;13.45;;;;;;;1.82;100.00;99746.81;5094868;28;20019;-84
2023/03/09 10:14:47;;;;;;;28.48;12.98;;;;;;;1.90;100.00;99749.38;5094838;28;20017;-84
2023/03/09 10:17:45;;;;;;;29.80;13.70;;;;;;;1.93;100.00;99754.53;5094972;28;20089;-84
2023/03/09 10:20:25;;;;;;;31.35;14.05;;;;;;;1.94;100.00;99749.41;5094174;28;20016;-87
2023/03/09 10:22:54;;;;;;;29.15;13.13;;;;;;;1.96;100.00;99750.25;5095874;28;20032;-87
2023/03/09 10:25:22;;;;;;;30.85;14.25;;;;;;;1.97;100.00;99744.28;5088467;28;20020;-78
2023/03/09 10:28:12;;;;;;;38.30;19.48;;;;;;;1.98;100.00;99756.25;5089180;28;20032;-85
2023/03/09 10:30:53;;;;;;;37.47;17.77;;;;;;;2.03;100.00;99750.28;5095461;28;20028;-87
2023/03/09 10:33:35;;;;;;;37.95;17.83;;;;;;;2.05;100.00;99738.31;5094859;28;20472;-87
2023/03/09 10:36:11;;;;;;;38.92;19.63;;;;;;;2.06;100.00;99733.22;5095436;28;20040;-86
2023/03/09 10:38:38;;;;;;;36.75;17.60;;;;;;;2.10;100.00;99724.69;5094826;28;20020;-86
2023/03/09 10:41:12;;;;;;;37.30;17.67;;;;;;;2.22;100.00;99739.22;5095011;28;20119;-86
2023/03/09 10:43:37;;;;;;;36.38;16.92;;;;;;;2.30;100.00;99739.22;5095516;28;20036;-90
2023/03/09 10:46:15;;;;;;;32.60;15.32;;;;;;;2.40;100.00;99746.06;5096032;28;20077;-87
2023/03/09 10:48:42;;;;;;;29.30;14.10;;;;;;;2.48;100.00;99748.59;5095717;28;20495;-87
2023/03/09 10:51:33;;;;;;;27.83;12.80;;;;;;;2.65;100.00;99746.03;5095565;28;20024;-87
2023/03/09 10:54:28;;;;;;;26.35;11.68;;;;;;;2.75;100.00;99750.34;5095513;28;20023;-87
2023/03/09 10:56:54;;;;;;;26.55;11.38;;;;;;;2.82;100.00;99753.72;5092650;28;20040;-86
2023/03/09 10:59:22;;;;;;;26.67;11.32;;;;;;;2.82;100.00;99752.88;5092678;28;20024;-92
2023/03/09 11:01:51;;;;;;;23.20;10.20;;;;;;;2.90;100.00;99758.84;5095939;28;20035;-86
2023/03/09 11:04:22;;;;;;;28.10;12.77;;;;;;;2.91;100.00;99750.28;5095445;28;20086;-87
2023/03/09 11:06:59;;;;;;;34.45;16.73;;;;;;;2.86;100.00;99745.19;5094563;28;20115;-89
2023/03/09 11:09:35;;;;;;;;;;;;;;;2.76;100.00;99749.44;5095670;28;20028;-87
2023/03/09 11:12:28;;;;;;;38.85;19.52;;;;;;;2.74;100.00;99745.19;5094646;28;20012;-86
2023/03/09 11:14:55;;;;;;;37.20;18.20;;;;;;;2.80;100.00;99747.75;5094075;28;20047;-86
2023/03/09 11:17:38;;;;;;;34.00;16.88;;;;;;;2.88;100.00;99748.59;5096485;28;20016;-87
2023/03/09 11:20:23;;;;;;;34.80;16.15;;;;;;;3.02;100.00;99750.28;5094758;28;20468;-86
2023/03/09 11:23:00;;;;;;;32.30;15.65;;;;;;;3.08;100.00;99748.56;5092907;28;20032;-86
2023/03/09 11:26:03;;;;;;;33.85;16.48;;;;;;;3.17;100.00;99750.25;5079553;28;20025;-86
2023/03/09 11:28:37;;;;;;;41.30;20.58;;;;;;;3.12;100.00;99741.72;5089062;28;20064;-85
2023/03/09 11:31:02;;;;;;;42.15;21.98;;;;;;;3.03;100.00;99736.63;5082285;28;20032;-87